Time;durP1;ratioP1;P1;durP2;ratioP2;P2;SDS_P1;SDS_P2;PMS_P1;PMS_P2;Temp;Humidity;BMP_temperature;BMP_pressure;BME280_temperature;BME280_humidity;BME280_pressure;Samples;Min_cycle;Max_cycle;Signal;HPM_P1;HPM_P2
2022/11/02 00:00:14;;;;;;;;;;;;;;;11.13;82.66;98605.25;4925684;28;19927;-57
2022/11/02 00:02:41;;;;;;;;;;;;;;;11.15;82.17;98608.50;4926446;29;20353;-57
2022/11/02 00:05:11;;;;;;;;;;;;;;;11.07;82.97;98599.09;4928699;29;19930;-58
2022/11/02 00:07:42;;;;;;;;;;;;;;;11.10;82.96;98603.97;4923357;29;19966;-58
2022/11/02 00:10:10;;;;;;;;;;;;;;;11.10;83.09;98603.97;4933973;29;19937;-58
2022/11/02 00:12:38;;;;;;;;;;;;;;;11.13;82.76;98608.81;4933416;29;19933;-58
2022/11/02 00:15:08;;;;;;;;;;;;;;;11.17;82.63;98611.72;4925758;29;20393;-57
2022/11/02 00:17:36;;;;;;;;;;;;;;;11.14;83.20;98604.19;4930372;28;20407;-58
2022/11/02 00:20:04;;;;;;;;;;;;;;;11.17;82.77;98611.72;4926844;29;19970;-57
2022/11/02 00:22:32;;;;;;;;;;;;;;;11.21;82.47;98610.84;4933473;29;19937;-58
2022/11/02 00:25:26;;;;;;;;;;;;;;;11.19;82.65;98606.81;4933639;29;20082;-57
2022/11/02 00:27:54;;;;;;;;;;;;;;;11.21;82.46;98613.56;4933205;29;19927;-58
2022/11/02 00:30:23;;;;;;;;;;;;;;;11.26;82.49;98615.38;4927941;29;19926;-57
2022/11/02 00:32:53;;;;;;;;;;;;;;;11.26;82.23;98615.38;4916764;29;20288;-57
2022/11/02 00:35:20;;;;;;;;;;;;;;;11.25;82.36;98616.50;4921689;29;19966;-58
2022/11/02 00:37:48;;;;;;;;;;;;;;;11.27;82.35;98622.44;4923007;29;20392;-57
2022/11/02 00:43:09;;;;;;;;;;;;;;;11.28;82.71;98627.56;4926437;29;19993;-58
2022/11/02 00:45:38;;;;;;;;;;;;;;;11.31;82.30;98628.91;4928285;28;20410;-58
2022/11/02 00:48:09;;;;;;;;;;;;;;;11.33;82.19;98626.69;4934772;29;20128;-58
2022/11/02 00:50:38;;;;;;;;;;;;;;;11.25;81.96;98632.81;4944536;28;20014;-58
2022/11/02 00:53:06;;;;;;;;;;;;;;;11.24;82.01;98631.22;4934618;28;19969;-57
2022/11/02 00:55:34;;;;;;;;;;;;;;;11.22;82.01;98636.13;4925368;29;19928;-58
2022/11/02 00:58:29;;;;;;;;;;;;;;;11.19;82.23;98629.38;4932806;29;19927;-58
2022/11/02 01:01:00;;;;;;;;;;;;;;;11.19;81.97;98637.53;4928718;28;19971;-58
2022/11/02 01:03:29;;;;;;;;;;;;;;;11.15;82.27;98635.72;4912792;29;19927;-58
2022/11/02 01:05:57;;;;;;;;;;;;;;;11.09;82.66;98637.72;4910985;29;19934;-58
2022/11/02 01:08:25;;;;;;;;;;;;;;;11.15;82.32;98641.16;4912421;29;19927;-57
2022/11/02 01:10:52;;;;;;;;;;;;;;;11.11;82.32;98632.75;4914307;29;19927;-58
2022/11/02 01:13:20;;;;;;;;;;;;;;;11.20;82.04;98632.91;4914706;29;19931;-57
2022/11/02 01:15:48;;;;;;;;;;;;;;;11.16;81.91;98634.59;4912306;29;19933;-58
2022/11/02 01:18:17;;;;;;;;;;;;;;;11.14;82.33;98626.75;4910413;29;20022;-57
2022/11/02 01:20:45;;;;;;;;;;;;;;;11.20;81.81;98631.00;4912125;29;19928;-58
2022/11/02 01:23:19;;;;;;;;;;;;;;;11.18;82.00;98633.19;4909813;29;19927;-57
2022/11/02 01:25:49;;;;;;;;;;;;;;;11.18;82.22;98632.38;4913115;29;19934;-58
2022/11/02 01:31:12;;;;;;;;;;;;;;;11.21;82.09;98629.88;4909109;28;19936;-57
2022/11/02 01:33:44;;;;;;;;;;;;;;;11.24;81.88;98623.84;4914437;29;20033;-57
2022/11/02 01:36:12;;;;;;;;;;;;;;;11.18;82.37;98621.50;4909566;29;19969;-58
2022/11/02 01:38:40;;;;;;;;;;;;;;;11.24;81.67;98620.34;4907681;29;19927;-57
2022/11/02 01:41:10;;;;;;;;;;;;;;;11.20;81.70;98622.84;4908082;29;19934;-57
2022/11/02 01:43:37;;;;;;;;;;;;;;;11.22;81.72;98622.53;4912322;29;19939;-58
2022/11/02 01:46:07;;;;;;;;;;;;;;;11.23;81.71;98619.50;4908222;29;19959;-58
2022/11/02 01:48:35;;;;;;;;;;;;;;;11.22;81.62;98622.53;4925758;29;19931;-58
2022/11/02 01:53:59;;;;;;;;;;;;;;;11.19;81.63;98612.25;4923849;29;19934;-60
2022/11/02 01:56:29;;;;;;;;;;;;;;;11.13;81.67;98616.16;4911934;29;19931;-57
2022/11/02 01:58:59;;;;;;;;;;;;;;;11.09;81.91;98617.88;4913433;29;19927;-57
2022/11/02 02:01:27;;;;;;;;;;;;;;;11.10;81.77;98614.03;4907562;29;19966;-57
2022/11/02 02:03:57;;;;;;;;;;;;;;;11.07;81.38;98614.63;4904363;29;19927;-58
2022/11/02 02:06:51;;;;;;;;;;;;;;;10.99;81.75;98616.91;4911596;29;20429;-58
2022/11/02 02:09:21;;;;;;;;;;;;;;;10.90;82.44;98613.25;4911581;29;19931;-57
2022/11/02 02:11:50;;;;;;;;;;;;;;;10.88;82.39;98607.31;4917124;29;19955;-58
2022/11/02 02:14:18;;;;;;;;;;;;;;;10.88;82.37;98612.75;4916096;29;19950;-57
2022/11/02 02:16:56;;;;;;;;;;;;;;;10.77;82.59;98605.84;4912326;29;19982;-58
2022/11/02 02:19:29;;;;;;;;;;;;;;;10.87;82.30;98608.41;4914904;29;19927;-57
2022/11/02 02:22:06;;;;;;;;;;;;;;;10.88;82.28;98601.88;4916523;29;19927;-58
2022/11/02 02:24:42;;;;;;;;;;;;;;;10.93;82.12;98603.72;4915681;29;20207;-57
2022/11/02 02:27:14;;;;;;;;;;;;;;;10.91;82.23;98606.69;4911762;29;19946;-58
2022/11/02 02:30:09;;;;;;;;;;;;;;;10.99;81.86;98607.97;4910938;29;20353;-57
2022/11/02 02:32:40;;;;;;;;;;;;;;;11.01;81.60;98608.47;4916458;28;20464;-58
2022/11/02 02:35:11;;;;;;;;;;;;;;;11.02;81.26;98605.47;4917501;29;19939;-58
2022/11/02 02:37:40;;;;;;;;;;;;;;;11.05;81.01;98605.97;4927690;29;20054;-58
2022/11/02 02:40:09;;;;;;;;;;;;;;;10.99;81.10;98600.59;4915280;29;19934;-58
2022/11/02 02:42:40;;;;;;;;;;;;;;;11.01;81.02;98601.09;4913459;29;19927;-58
2022/11/02 02:45:12;;;;;;;;;;;;;;;11.02;80.83;98597.31;4912368;29;19927;-57
2022/11/02 02:47:40;;;;;;;;;;;;;;;10.96;80.53;98590.31;4942504;28;20383;-58
2022/11/02 02:50:34;;;;;;;;;;;;;;;10.84;80.89;98587.25;4936403;29;19949;-58
2022/11/02 02:53:02;;;;;;;;;;;;;;;10.81;81.13;98589.75;4957933;28;19937;-58
2022/11/02 02:55:32;;;;;;;;;;;;;;;10.76;81.08;98582.50;4938505;29;19958;-57
2022/11/02 02:58:00;;;;;;;;;;;;;;;10.74;81.06;98590.13;4960850;28;19934;-58
2022/11/02 03:00:58;;;;;;;;;;;;;;;10.67;81.11;98585.06;4925575;28;20014;-58
2022/11/02 03:03:28;;;;;;;;;;;;;;;10.61;81.11;98588.19;4932219;29;19931;-58
2022/11/02 03:06:01;;;;;;;;;;;;;;;10.60;81.46;98578.38;4932223;29;19926;-57
2022/11/02 03:08:30;;;;;;;;;;;;;;;10.59;81.15;98583.00;4931304;29;19927;-58
2022/11/02 03:11:00;;;;;;;;;;;;;;;10.51;81.35;98585.59;4925740;29;19962;-58
2022/11/02 03:13:35;;;;;;;;;;;;;;;10.45;81.32;98582.97;4940017;29;19927;-58
2022/11/02 03:16:06;;;;;;;;;;;;;;;10.49;81.44;98586.72;4928904;29;19931;-58
2022/11/02 03:18:36;;;;;;;;;;;;;;;10.43;81.38;98589.78;4927013;29;19931;-58
2022/11/02 03:21:05;;;;;;;;;;;;;;;10.37;81.50;98585.50;4934279;29;20005;-58
2022/11/02 03:23:35;;;;;;;;;;;;;;;10.33;81.59;98588.00;4926883;29;19931;-58
2022/11/02 03:26:04;;;;;;;;;;;;;;;10.29;81.53;98589.72;4931160;29;19977;-58
2022/11/02 03:28:39;;;;;;;;;;;;;;;10.25;81.93;98587.88;4928676;29;20022;-65
2022/11/02 03:31:09;;;;;;;;;;;;;;;10.18;82.29;98585.50;4927389;28;19931;-58
2022/11/02 03:33:37;;;;;;;;;;;;;;;10.23;81.92;98580.00;4927611;29;19978;-58
2022/11/02 03:36:06;;;;;;;;;;;;;;;10.14;81.80;98581.72;4935210;29;19970;-58
2022/11/02 03:38:35;;;;;;;;;;;;;;;10.08;82.09;98567.41;4938933;29;20377;-58
2022/11/02 03:41:03;;;;;;;;;;;;;;;10.13;81.75;98583.66;4924878;29;19939;-58
2022/11/02 03:43:34;;;;;;;;;;;;;;;10.06;81.99;98594.03;4922695;29;20022;-58
2022/11/02 03:46:03;;;;;;;;;;;;;;;9.85;82.44;98601.63;4922641;29;19927;-58
2022/11/02 03:48:35;;;;;;;;;;;;;;;9.88;82.47;98601.06;4929877;29;19958;-58
2022/11/02 03:51:05;;;;;;;;;;;;;;;9.95;82.31;98601.50;4932577;29;19927;-58
2022/11/02 03:53:39;;;;;;;;;;;;;;;9.93;82.00;98592.84;4932861;29;19937;-58
2022/11/02 03:56:08;;;;;;;;;;;;;;;9.76;82.54;98595.22;4927723;29;19927;-58
2022/11/02 03:58:38;;;;;;;;;;;;;;;9.82;82.11;98598.69;4933516;29;19963;-58
2022/11/02 04:01:07;;;;;;;;;;;;;;;9.69;82.93;98592.88;4916555;29;19927;-62
2022/11/02 04:03:40;;;;;;;;;;;;;;;9.77;82.45;98588.69;4921825;29;20299;-58
2022/11/02 04:06:08;;;;;;;;;;;;;;;9.79;82.33;98600.06;4932735;29;20436;-57
2022/11/02 04:08:37;;;;;;;;;;;;;;;9.78;82.36;98608.50;4948771;28;19926;-58
2022/11/02 04:16:44;;;;;;;;;;;;;;;9.69;82.15;98602.88;4921646;29;19990;-57
2022/11/02 04:19:29;;;;;;;;;;;;;;;9.52;82.40;98602.53;4930098;29;19934;-58
2022/11/02 04:27:40;;;;;;;;;;;;;;;9.60;81.74;98613.59;4929320;29;19930;-58
2022/11/02 04:30:09;;;;;;;;;;;;;;;9.46;82.16;98612.63;4923410;29;19931;-58
2022/11/02 04:35:26;;;;;;;;;;;;;;;9.44;81.91;98617.53;4928555;29;19938;-58
2022/11/02 04:40:40;;;;;;;;;;;;;;;9.36;82.09;98612.72;4931627;29;19927;-57
2022/11/02 04:43:10;;;;;;;;;;;;;;;9.36;82.06;98605.41;4929660;29;19954;-58
2022/11/02 04:45:40;;;;;;;;;;;;;;;9.36;81.91;98610.81;4927781;28;20423;-57
2022/11/02 04:48:09;;;;;;;;;;;;;;;9.34;81.91;98614.94;4933636;29;19934;-58
2022/11/02 04:50:39;;;;;;;;;;;;;;;9.32;81.83;98617.09;4938624;29;20017;-57
2022/11/02 04:53:08;;;;;;;;;;;;;;;9.31;82.14;98619.00;4932681;29;19927;-57
2022/11/02 04:55:38;;;;;;;;;;;;;;;9.28;82.04;98618.78;4927346;29;20266;-58
2022/11/02 05:01:04;;;;;;;;;;;;;;;9.23;82.12;98616.94;4938180;29;19974;-57
2022/11/02 05:03:32;;;;;;;;;;;;;;;9.23;82.20;98616.94;4928904;29;19927;-57
2022/11/02 05:06:02;;;;;;;;;;;;;;;9.28;82.09;98618.78;4931554;29;19926;-59
2022/11/02 05:08:30;;;;;;;;;;;;;;;9.29;82.00;98621.22;4925244;29;20380;-58
2022/11/02 05:10:58;;;;;;;;;;;;;;;9.22;82.13;98615.31;4929349;29;20632;-57
2022/11/02 05:13:27;;;;;;;;;;;;;;;9.28;81.80;98619.59;4927716;29;20014;-58
2022/11/02 05:15:58;;;;;;;;;;;;;;;9.27;81.88;98625.28;4927473;29;20344;-57
2022/11/02 05:18:27;;;;;;;;;;;;;;;9.18;81.62;98627.81;4925029;29;19938;-58
2022/11/02 05:20:56;;;;;;;;;;;;;;;9.24;81.80;98626.69;4930308;29;19927;-57
2022/11/02 05:23:28;;;;;;;;;;;;;;;9.18;81.42;98627.81;4925809;29;19931;-58
2022/11/02 05:26:02;;;;;;;;;;;;;;;9.18;81.98;98620.50;4930106;29;19926;-58
2022/11/02 05:28:32;;;;;;;;;;;;;;;9.20;81.38;98631.03;4931342;29;19927;-58
2022/11/02 05:31:03;;;;;;;;;;;;;;;9.16;81.50;98632.69;4921790;29;19930;-58
2022/11/02 05:33:33;;;;;;;;;;;;;;;9.10;81.72;98628.41;4933585;29;20353;-57
2022/11/02 05:36:07;;;;;;;;;;;;;;;9.12;81.75;98631.66;4926705;29;19927;-58
2022/11/02 05:38:39;;;;;;;;;;;;;;;9.12;81.37;98637.09;4924796;29;19931;-61
2022/11/02 05:41:09;;;;;;;;;;;;;;;9.09;81.70;98638.44;4918763;29;19934;-58
2022/11/02 05:43:39;;;;;;;;;;;;;;;9.17;81.55;98634.34;4924713;29;19941;-58
2022/11/02 05:46:13;;;;;;;;;;;;;;;9.17;81.49;98642.47;4926440;29;20026;-58
2022/11/02 05:48:42;;;;;;;;;;;;;;;9.09;81.33;98645.78;4931127;28;19927;-57
2022/11/02 05:51:10;;;;;;;;;;;;;;;8.97;81.92;98643.44;4931103;29;19938;-58
2022/11/02 05:53:40;;;;;;;;;;;;;;;9.00;82.01;98642.88;4935781;29;19931;-57
2022/11/02 05:56:10;;;;;;;;;;;;;;;8.99;81.76;98640.44;4930647;29;19933;-57
2022/11/02 05:58:38;;;;;;;;;;;;;;;9.09;81.40;98649.28;4936508;29;20009;-57
2022/11/02 06:01:08;;;;;;;;;;;;;;;9.15;81.24;98642.72;4927759;28;19982;-58
2022/11/02 06:04:01;;;;;;;;;;;;;;;9.12;81.01;98642.50;4925647;29;19931;-57
2022/11/02 06:06:58;;;;;;;;;;;;;;;9.05;81.73;98650.13;4930197;29;20026;-58
2022/11/02 06:09:28;;;;;;;;;;;;;;;9.06;81.39;98652.59;4921573;29;19935;-58
2022/11/02 06:11:55;;;;;;;;;;;;;;;9.00;81.55;98658.31;4928891;29;19927;-58
2022/11/02 06:14:23;;;;;;;;;;;;;;;9.06;81.36;98662.63;4933512;29;20013;-58
2022/11/02 06:16:51;;;;;;;;;;;;;;;9.06;81.37;98663.44;4928685;28;19927;-58
2022/11/02 06:19:20;;;;;;;;;;;;;;;9.07;81.26;98667.75;4931084;29;20258;-58
2022/11/02 06:21:49;;;;;;;;;;;;;;;9.14;81.07;98662.00;4929068;29;19934;-57
2022/11/02 06:24:17;;;;;;;;;;;;;;;9.18;81.04;98669.28;4934807;29;19935;-57
2022/11/02 06:26:47;;;;;;;;;;;;;;;9.15;81.17;98674.47;4934243;29;19937;-58
2022/11/02 06:29:15;;;;;;;;;;;;;;;9.17;81.06;98669.56;4925709;29;20487;-57
2022/11/02 06:31:44;;;;;;;;;;;;;;;9.15;80.69;98669.03;4922292;29;19930;-58
2022/11/02 06:34:11;;;;;;;;;;;;;;;9.17;80.92;98672.28;4933726;29;19927;-58
2022/11/02 06:36:39;;;;;;;;;;;;;;;9.12;81.36;98685.88;4931517;29;19933;-58
2022/11/02 06:39:07;;;;;;;;;;;;;;;9.27;80.62;98676.78;4930741;29;19930;-57
2022/11/02 06:41:35;;;;;;;;;;;;;;;9.17;81.16;98683.94;4933738;29;19981;-57
2022/11/02 06:44:07;;;;;;;;;;;;;;;9.24;80.93;98686.31;4926420;29;19927;-59
2022/11/02 06:46:39;;;;;;;;;;;;;;;9.24;80.75;98691.75;4926007;28;20221;-57
2022/11/02 06:49:08;;;;;;;;;;;;;;;9.17;80.96;98699.41;4926928;29;20030;-57
2022/11/02 06:51:35;;;;;;;;;;;;;;;9.30;80.51;98703.34;4934897;29;19927;-57
2022/11/02 06:54:03;;;;;;;;;;;;;;;9.30;80.48;98696.03;4945807;29;19934;-57
2022/11/02 06:56:35;;;;;;;;;;;;;;;9.39;80.39;98702.47;4929950;29;19972;-57
2022/11/02 06:59:04;;;;;;;;;;;;;;;9.34;80.39;98702.50;4933983;29;20296;-58
2022/11/02 07:01:33;;;;;;;;;;;;;;;9.36;80.36;98703.03;4924744;29;20460;-58
2022/11/02 07:06:58;;;;;;;;;;;;;;;9.41;80.69;98705.69;4929761;29;19931;-57
2022/11/02 07:09:27;;;;;;;;;;;;;;;9.42;80.35;98707.31;4932592;29;19930;-57
2022/11/02 07:11:54;;;;;;;;;;;;;;;9.40;80.29;98714.13;4934797;29;19965;-58
2022/11/02 07:14:23;;;;;;;;;;;;;;;9.47;80.36;98719.22;4933030;29;20018;-57
2022/11/02 07:16:52;;;;;;;;;;;;;;;9.54;80.11;98722.44;4926151;29;20410;-58
2022/11/02 07:19:19;;;;;;;;;;;;;;;9.59;79.84;98728.63;4936273;29;20295;-57
2022/11/02 07:21:48;;;;;;;;;;;;;;;9.62;79.88;98728.03;4932855;29;20368;-58
2022/11/02 07:24:16;;;;;;;;;;;;;;;9.54;79.67;98733.28;4929791;29;19928;-58
2022/11/02 07:26:45;;;;;;;;;;;;;;;9.53;79.64;98737.06;4947469;29;19926;-57
2022/11/02 07:29:14;;;;;;;;;;;;;;;9.61;79.95;98742.69;4933351;29;20006;-57
2022/11/02 07:31:42;;;;;;;;;;;;;;;9.72;79.88;98748.84;4923362;28;19950;-57
2022/11/02 07:34:11;;;;;;;;;;;;;;;9.74;79.52;98740.41;4929810;29;19926;-58
2022/11/02 07:36:43;;;;;;;;;;;;;;;9.73;79.86;98741.50;4930888;29;19937;-58
2022/11/02 07:39:11;;;;;;;;;;;;;;;9.71;79.43;98745.31;4933611;29;19927;-58
2022/11/02 07:41:39;;;;;;;;;;;;;;;9.86;79.65;98749.00;4929625;29;19931;-58
2022/11/02 07:44:07;;;;;;;;;;;;;;;10.00;79.12;98751.84;4931454;29;19927;-57
2022/11/02 07:46:53;;;;;;;;;;;;;;;10.06;78.42;98754.22;4930964;28;19939;-57
2022/11/02 07:49:23;;;;;;;;;;;;;;;10.17;78.25;98754.91;4934829;29;19926;-57
2022/11/02 07:51:51;;;;;;;;;;;;;;;10.15;78.04;98749.78;4922889;29;19927;-58
2022/11/02 07:54:19;;;;;;;;;;;;;;;10.11;78.18;98753.34;4929605;29;20358;-57
2022/11/02 07:56:47;;;;;;;;;;;;;;;10.12;78.22;98752.25;4930351;29;19931;-58
2022/11/02 07:59:15;;;;;;;;;;;;;;;10.18;78.25;98745.69;4934412;29;20337;-58
2022/11/02 08:01:43;;;;;;;;;;;;;;;10.23;78.09;98753.78;4928207;28;20030;-58
2022/11/02 08:04:14;;;;;;;;;;;;;;;10.33;78.19;98753.69;4926710;29;19926;-58
2022/11/02 08:06:44;;;;;;;;;;;;;;;10.44;77.64;98755.22;4934675;29;19934;-58
2022/11/02 08:09:13;;;;;;;;;;;;;;;10.57;77.03;98763.75;4929617;29;19934;-57
2022/11/02 08:11:40;;;;;;;;;;;;;;;10.73;76.74;98759.75;4932088;29;20021;-57
2022/11/02 08:14:08;;;;;;;;;;;;;;;10.81;76.23;98764.50;4934527;29;19927;-58
2022/11/02 08:16:36;;;;;;;;;;;;;;;10.81;75.79;98756.34;4930345;28;20384;-58
2022/11/02 08:19:04;;;;;;;;;;;;;;;10.93;75.45;98756.75;4932223;29;19927;-58
2022/11/02 08:21:32;;;;;;;;;;;;;;;11.06;75.54;98754.41;4931687;29;20006;-58
2022/11/02 08:24:01;;;;;;;;;;;;;;;11.13;74.99;98761.13;4934546;29;20389;-57
2022/11/02 08:26:29;;;;;;;;;;;;;;;11.18;74.71;98757.47;4933950;29;19934;-58
2022/11/02 08:28:58;;;;;;;;;;;;;;;11.22;73.79;98758.53;4935749;29;19927;-58
2022/11/02 08:31:26;;;;;;;;;;;;;;;11.27;73.93;98755.72;4923576;29;19931;-57
2022/11/02 08:33:54;;;;;;;;;;;;;;;11.40;72.88;98765.03;4927252;29;19927;-57
2022/11/02 08:36:22;;;;;;;;;;;;;;;11.53;72.78;98770.56;4932586;29;19927;-56
2022/11/02 08:38:50;;;;;;;;;;;;;;;11.70;71.95;98769.19;4930525;29;20022;-57
2022/11/02 08:41:19;;;;;;;;;;;;;;;11.74;72.14;98771.03;4930343;29;19935;-56
2022/11/02 08:43:47;;;;;;;;;;;;;;;11.88;71.57;98782.00;4927420;29;19930;-57
2022/11/02 08:46:16;;;;;;;;;;;;;;;11.99;71.66;98783.44;4928954;29;19926;-57
2022/11/02 08:48:49;;;;;;;;;;;;;;;12.13;70.84;98771.75;4927040;29;19958;-57
2022/11/02 08:51:17;;;;;;;;;;;;;;;12.17;69.70;98778.22;4922519;29;19970;-57
2022/11/02 08:53:45;;;;;;;;;;;;;;;12.19;69.86;98778.72;4927640;29;19933;-57
2022/11/02 08:56:19;;;;;;;;;;;;;;;12.26;69.38;98782.69;4927177;29;20273;-57
2022/11/02 08:58:47;;;;;;;;;;;;;;;12.30;69.33;98791.03;4926970;29;20029;-57
2022/11/02 09:01:16;;;;;;;;;;;;;;;12.31;69.10;98792.69;4925709;29;20045;-57
2022/11/02 09:03:44;;;;;;;;;;;;;;;12.30;69.46;98783.72;4932600;29;20355;-57
2022/11/02 09:06:15;;;;;;;;;;;;;;;12.16;70.03;98788.31;4934273;29;19930;-57
2022/11/02 09:08:43;;;;;;;;;;;;;;;12.18;69.57;98797.00;4933749;29;20654;-57
2022/11/02 09:11:11;;;;;;;;;;;;;;;12.11;69.62;98801.22;4927183;29;19928;-57
2022/11/02 09:13:40;;;;;;;;;;;;;;;12.06;69.50;98802.94;4933897;29;19927;-57
2022/11/02 09:16:09;;;;;;;;;;;;;;;12.09;69.42;98806.16;4928551;28;21043;-57
2022/11/02 09:18:37;;;;;;;;;;;;;;;12.02;69.80;98801.09;4931078;29;19931;-57
2022/11/02 09:21:06;;;;;;;;;;;;;;;12.00;70.04;98812.28;4935753;29;19933;-57
2022/11/02 09:23:59;;;;;;;;;;;;;;;11.94;70.33;98808.03;4931052;29;20025;-57
2022/11/02 09:26:28;;;;;;;;;;;;;;;12.06;70.50;98800.19;4923416;28;19927;-57
2022/11/02 09:28:58;;;;;;;;;;;;;;;12.12;70.28;98808.28;4938027;29;19974;-57
2022/11/02 09:31:28;;;;;;;;;;;;;;;12.16;70.28;98803.84;4926726;29;19931;-56
2022/11/02 09:33:56;;;;;;;;;;;;;;;12.12;70.51;98797.38;4933429;29;19934;-57
2022/11/02 09:36:24;;;;;;;;;;;;;;;12.17;70.32;98806.28;4928054;29;19934;-57
2022/11/02 09:38:52;;;;;;;;;;;;;;;12.14;69.70;98795.16;4936842;29;19969;-57
2022/11/02 09:41:21;;;;;;;;;;;;;;;12.16;70.24;98798.41;4929939;29;19974;-57
2022/11/02 09:44:18;;;;;;;;;;;;;;;12.26;70.11;98803.69;4932344;29;20597;-56
2022/11/02 09:46:46;;;;;;;;;;;;;;;12.34;69.59;98808.41;4939414;28;20024;-57
2022/11/02 09:49:17;;;;;;;;;;;;;;;12.44;69.24;98810.97;4927769;29;19971;-56
2022/11/02 09:51:46;;;;;;;;;;;;;;;12.51;69.32;98799.66;4935880;29;19994;-57
2022/11/02 09:54:15;;;;;;;;;;;;;;;12.67;69.14;98800.97;4937099;29;20388;-57
2022/11/02 09:56:44;;;;;;;;;;;;;;;12.78;68.45;98805.13;4936800;29;19931;-57
2022/11/02 09:59:13;;;;;;;;;;;;;;;12.85;67.82;98812.91;4934698;29;19930;-57
2022/11/02 10:01:44;;;;;;;;;;;;;;;12.98;66.77;98812.06;4926982;28;19962;-57
2022/11/02 10:04:28;;;;;;;;;;;;;;;13.02;66.59;98815.81;4926874;29;19981;-57
2022/11/02 10:06:56;;;;;;;;;;;;;;;13.06;66.79;98816.81;4931644;29;19927;-57
2022/11/02 10:09:25;;;;;;;;;;;;;;;13.14;66.02;98822.66;4932883;29;19970;-57
2022/11/02 10:11:55;;;;;;;;;;;;;;;13.17;65.53;98822.06;4932657;29;19931;-57
2022/11/02 10:14:24;;;;;;;;;;;;;;;13.14;65.90;98817.19;4932371;29;19934;-57
2022/11/02 10:16:55;;;;;;;;;;;;;;;13.10;66.02;98823.28;4930932;28;20344;-57
2022/11/02 10:19:22;;;;;;;;;;;;;;;13.09;65.67;98809.91;4934237;29;19987;-57
2022/11/02 10:21:55;;;;;;;;;;;;;;;13.09;65.52;98812.66;4928291;29;20379;-57
2022/11/02 10:24:26;;;;;;;;;;;;;;;13.13;65.42;98815.59;4933221;29;19927;-56
2022/11/02 10:26:55;;;;;;;;;;;;;;;13.08;65.10;98814.56;4930961;29;20026;-57
2022/11/02 10:29:26;;;;;;;;;;;;;;;13.09;65.29;98815.38;4948547;28;19926;-57
2022/11/02 10:31:57;;;;;;;;;;;;;;;13.10;65.54;98806.91;4919736;29;19933;-57
2022/11/02 10:34:27;;;;;;;;;;;;;;;13.23;65.05;98815.41;4932565;29;19990;-57
2022/11/02 10:36:58;;;;;;;;;;;;;;;13.20;64.72;98810.50;4934460;29;20022;-57
2022/11/02 10:39:28;;;;;;;;;;;;;;;13.21;64.62;98813.00;4928191;29;19934;-57
2022/11/02 10:42:07;;;;;;;;;;;;;;;13.22;65.30;98813.78;4927940;29;19927;-57
2022/11/02 10:44:49;;;;;;;;;;;;;;;13.32;64.42;98808.09;4934664;29;19934;-57
2022/11/02 10:47:20;;;;;;;;;;;;;;;13.28;64.41;98807.91;4929353;29;19931;-57
2022/11/02 10:49:59;;;;;;;;;;;;;;;13.24;64.06;98806.09;4934691;29;20482;-57
2022/11/02 10:52:28;;;;;;;;;;;;;;;13.17;64.42;98802.97;4933681;29;19935;-57
2022/11/02 10:54:56;;;;;;;;;;;;;;;13.20;64.38;98805.06;4935000;29;19930;-57
2022/11/02 10:57:24;;;;;;;;;;;;;;;13.23;64.07;98793.56;4932166;29;19927;-57
2022/11/02 11:00:07;;;;;;;;;;;;;;;13.33;63.52;98796.88;4930722;29;19927;-57
2022/11/02 11:02:37;;;;;;;;;;;;;;;13.35;63.96;98794.63;4925921;29;20392;-57
2022/11/02 11:05:12;;;;;;;;;;;;;;;13.40;63.41;98796.44;4934833;29;20365;-57
2022/11/02 11:07:43;;;;;;;;;;;;;;;13.39;63.35;98797.56;4934397;29;19959;-57
2022/11/02 11:10:13;;;;;;;;;;;;;;;13.35;63.35;98802.81;4926774;29;19970;-57
2022/11/02 11:12:42;;;;;;;;;;;;;;;13.36;62.98;98803.63;4925821;29;19982;-57
2022/11/02 11:15:16;;;;;;;;;;;;;;;13.33;62.77;98799.59;4933476;29;20047;-57
2022/11/02 11:18:11;;;;;;;;;;;;;;;13.36;62.82;98803.63;4924339;29;19931;-57
2022/11/02 11:20:59;;;;;;;;;;;;;;;13.40;62.83;98792.91;4928354;29;20285;-57
2022/11/02 11:23:27;;;;;;;;;;;;;;;13.45;62.55;98795.53;4924607;29;19934;-57
2022/11/02 11:25:59;;;;;;;;;;;;;;;13.58;61.50;98798.22;4920803;29;19955;-57
2022/11/02 11:28:33;;;;;;;;;;;;;;;13.53;60.98;98792.88;4932156;29;19930;-57
2022/11/02 11:31:02;;;;;;;;;;;;;;;13.54;61.19;98799.94;4929893;29;19933;-57
2022/11/02 11:33:31;;;;;;;;;;;;;;;13.56;60.80;98797.69;4933852;29;19982;-57
2022/11/02 11:35:59;;;;;;;;;;;;;;;13.49;59.87;98794.59;4935567;29;20022;-57
2022/11/02 11:38:27;;;;;;;;;;;;;;;13.48;59.62;98789.47;4930172;29;19931;-57
2022/11/02 11:40:55;;;;;;;;;;;;;;;13.49;59.81;98786.41;4927142;29;20022;-57
2022/11/02 11:43:25;;;;;;;;;;;;;;;13.61;60.12;98791.31;4934595;29;19998;-57
2022/11/02 11:45:53;;;;;;;;;;;;;;;13.72;59.58;98784.50;4936223;28;19930;-57
2022/11/02 11:48:23;;;;;;;;;;;;;;;13.77;58.87;98798.03;4935515;29;19938;-58
2022/11/02 11:50:53;;;;;;;;;;;;;;;13.78;57.70;98793.38;4923778;29;19938;-59
2022/11/02 11:53:22;;;;;;;;;;;;;;;13.80;57.04;98791.16;4934412;29;19931;-58
2022/11/02 11:55:50;;;;;;;;;;;;;;;13.87;57.23;98792.31;4927426;29;19979;-58
2022/11/02 11:58:19;;;;;;;;;;;;;;;13.89;57.18;98787.34;4928580;29;19937;-58
2022/11/02 12:01:13;;;;;;;;;;;;;;;13.86;56.80;98784.44;4927202;29;19931;-58
2022/11/02 12:03:49;;;;;;;;;;;;;;;13.75;56.58;98791.28;4924251;29;19966;-58
2022/11/02 12:06:23;;;;;;;;;;;;;;;13.72;56.72;98794.63;4934091;29;19927;-58
2022/11/02 12:08:53;;;;;;;;;;;;;;;13.75;56.53;98794.81;4933687;29;20370;-58
2022/11/02 12:11:26;;;;;;;;;;;;;;;13.75;56.85;98788.53;4933927;29;19946;-58
2022/11/02 12:14:07;;;;;;;;;;;;;;;13.68;57.06;98788.97;4931420;29;19927;-58
2022/11/02 12:16:39;;;;;;;;;;;;;;;13.52;57.64;98777.59;4926001;29;20364;-58
2022/11/02 12:19:19;;;;;;;;;;;;;;;13.53;57.55;98781.97;4929521;29;19926;-58
2022/11/02 12:21:51;;;;;;;;;;;;;;;13.40;58.46;98792.91;4932057;29;19966;-58
2022/11/02 12:24:42;;;;;;;;;;;;;;;13.31;58.30;98795.56;4926421;29;19974;-58
2022/11/02 12:27:14;;;;;;;;;;;;;;;13.30;58.62;98788.50;4910840;29;19933;-58
2022/11/02 12:30:01;;;;;;;;;;;;;;;13.27;58.83;98792.66;4934208;29;19927;-58
2022/11/02 12:32:37;;;;;;;;;;;;;;;13.21;59.18;98803.94;4906438;29;19983;-58
2022/11/02 12:35:08;;;;;;;;;;;;;;;13.20;59.57;98803.13;4913814;29;19931;-58
2022/11/02 12:38:00;;;;;;;;;;;;;;;13.31;59.41;98801.81;4913879;29;19934;-58
2022/11/02 12:40:30;;;;;;;;;;;;;;;13.34;59.27;98798.47;4910140;29;20145;-59
2022/11/02 12:42:58;;;;;;;;;;;;;;;13.40;58.79;98792.91;4904532;29;20452;-59
2022/11/02 12:45:30;;;;;;;;;;;;;;;13.41;58.77;98789.88;4914168;28;19931;-59
2022/11/02 12:48:08;;;;;;;;;;;;;;;13.46;58.67;98787.03;4934916;29;20329;-58
2022/11/02 12:50:40;;;;;;;;;;;;;;;13.32;59.31;98781.63;4919745;29;19927;-58
2022/11/02 12:53:15;;;;;;;;;;;;;;;13.43;59.62;98774.00;4922300;29;19933;-58
2022/11/02 12:55:44;;;;;;;;;;;;;;;13.50;59.06;98770.84;4927159;29;20348;-58
2022/11/02 12:58:37;;;;;;;;;;;;;;;13.47;58.70;98777.72;4938688;29;20010;-58
2022/11/02 13:01:06;;;;;;;;;;;;;;;13.48;58.44;98773.09;4923534;29;19931;-57
2022/11/02 13:03:43;;;;;;;;;;;;;;;13.45;58.08;98763.56;4927060;29;19934;-58
2022/11/02 13:06:12;;;;;;;;;;;;;;;13.50;57.27;98765.38;4932322;29;19931;-57
2022/11/02 13:08:42;;;;;;;;;;;;;;;13.39;57.56;98769.47;4923232;29;19931;-58
2022/11/02 13:11:12;;;;;;;;;;;;;;;13.35;58.35;98764.63;4929620;29;19982;-57
2022/11/02 13:13:42;;;;;;;;;;;;;;;13.55;57.02;98759.81;4934288;29;19926;-58
2022/11/02 13:16:09;;;;;;;;;;;;;;;13.54;57.66;98767.19;4927176;29;19942;-58
2022/11/02 13:18:38;;;;;;;;;;;;;;;13.56;57.00;98767.66;4927765;29;20366;-58
2022/11/02 13:21:06;;;;;;;;;;;;;;;13.56;56.49;98770.41;4932403;29;19945;-58
2022/11/02 13:23:35;;;;;;;;;;;;;;;13.48;56.73;98767.63;4928527;29;19927;-58
2022/11/02 13:26:05;;;;;;;;;;;;;;;13.44;57.09;98766.63;4931081;29;19966;-58
2022/11/02 13:28:34;;;;;;;;;;;;;;;13.45;56.18;98752.66;4928038;29;19934;-58
2022/11/02 13:31:06;;;;;;;;;;;;;;;13.42;56.00;98745.06;4927461;29;19927;-58
2022/11/02 13:33:41;;;;;;;;;;;;;;;13.37;56.60;98747.94;4939807;29;19939;-58
2022/11/02 13:36:08;;;;;;;;;;;;;;;13.39;56.71;98759.34;4925135;29;19926;-58
2022/11/02 13:38:37;;;;;;;;;;;;;;;13.41;56.76;98739.94;4934246;29;19927;-58
2022/11/02 13:41:13;;;;;;;;;;;;;;;13.44;56.67;98745.59;4931947;29;19931;-58